createdAt,value
2019-05-19T00:02:23.814Z,62.40
2019-05-19T00:04:54.261Z,68.50
2019-05-19T00:07:24.754Z,60.80
2019-05-19T00:09:55.067Z,56.67
2019-05-19T00:12:25.488Z,54.90
2019-05-19T00:14:55.915Z,48.43
2019-05-19T00:17:26.276Z,45.03
2019-05-19T00:19:56.625Z,47.93
2019-05-19T00:22:27.036Z,45.23
2019-05-19T00:24:57.459Z,40.23
2019-05-19T00:27:27.867Z,38.77
2019-05-19T00:29:58.208Z,37.17
2019-05-19T00:32:28.615Z,37.80
2019-05-19T00:34:59.074Z,31.93
2019-05-19T00:37:29.453Z,37.43
2019-05-19T00:39:59.782Z,34.23
2019-05-19T00:42:30.352Z,34.77
2019-05-19T00:45:00.679Z,35.07
2019-05-19T00:47:31.054Z,33.20
2019-05-19T00:50:01.415Z,36.27
2019-05-19T00:52:31.786Z,34.63
2019-05-19T00:55:02.196Z,36.53
2019-05-19T00:57:33.232Z,34.13
2019-05-19T01:00:03.821Z,32.70
2019-05-19T01:02:35.083Z,30.47
2019-05-19T01:05:07.543Z,34.90
2019-05-19T01:07:37.975Z,36.87
2019-05-19T01:10:08.807Z,37.33
2019-05-19T01:12:40.767Z,32.20
2019-05-19T01:15:13.184Z,40.00
2019-05-19T01:17:43.767Z,46.67
2019-05-19T01:20:15.516Z,49.07
2019-05-19T01:22:45.943Z,55.47
2019-05-19T01:25:16.341Z,53.77
2019-05-19T01:27:46.830Z,55.13
2019-05-19T01:30:17.496Z,51.43
2019-05-19T01:32:47.913Z,54.93
2019-05-19T01:35:18.450Z,52.30
2019-05-19T01:37:48.824Z,57.03
2019-05-19T01:40:19.190Z,52.53
2019-05-19T01:42:49.568Z,52.47
2019-05-19T01:45:21.022Z,56.43
2019-05-19T01:47:51.403Z,57.43
2019-05-19T01:50:21.741Z,61.50
2019-05-19T01:52:52.121Z,55.13
2019-05-19T01:55:22.446Z,52.83
2019-05-19T01:57:52.836Z,51.53
2019-05-19T02:04:09.392Z,56.07
2019-05-19T02:06:39.834Z,55.53
2019-05-19T02:09:10.232Z,57.10
2019-05-19T02:11:41.406Z,55.60
2019-05-19T02:14:11.737Z,54.80
2019-05-19T02:16:42.072Z,54.43
2019-05-19T02:19:12.457Z,53.37
2019-05-19T02:21:42.873Z,50.47
2019-05-19T02:24:13.299Z,42.07
2019-05-19T02:26:43.638Z,48.43
2019-05-19T02:29:14.036Z,51.10
2019-05-19T02:31:44.378Z,53.23
2019-05-19T02:34:14.745Z,47.83
2019-05-19T02:36:45.176Z,45.57
2019-05-19T02:39:15.577Z,45.47
2019-05-19T02:41:49.272Z,51.30
2019-05-19T02:44:21.485Z,50.90
2019-05-19T02:46:53.826Z,46.60
2019-05-19T02:49:28.382Z,57.70
2019-05-19T02:52:01.664Z,51.83
2019-05-19T02:54:33.573Z,59.53
2019-05-19T02:57:04.537Z,66.63
2019-05-19T02:59:35.458Z,72.53
2019-05-19T03:02:09.673Z,67.67
2019-05-19T03:04:40.110Z,70.03
2019-05-19T03:07:10.449Z,64.93
2019-05-19T03:09:40.859Z,69.27
2019-05-19T03:12:11.206Z,83.63
2019-05-19T03:14:41.634Z,76.40
2019-05-19T03:17:11.913Z,76.83
2019-05-19T03:19:42.306Z,84.70
2019-05-19T03:22:16.765Z,76.37
2019-05-19T03:24:47.195Z,71.27
2019-05-19T03:27:17.477Z,69.60
2019-05-19T03:29:54.049Z,65.03
2019-05-19T03:32:41.672Z,87.33
2019-05-19T03:35:12.058Z,78.03
2019-05-19T03:37:42.501Z,69.67
2019-05-19T03:40:21.724Z,62.43
2019-05-19T03:42:52.565Z,58.00
2019-05-19T03:45:22.953Z,55.53
2019-05-19T03:47:53.366Z,54.20
2019-05-19T03:50:23.699Z,55.33
2019-05-19T03:52:54.035Z,51.20
2019-05-19T03:55:24.423Z,54.83
2019-05-19T03:57:54.788Z,58.03
2019-05-19T04:00:25.687Z,49.50
2019-05-19T04:02:56.038Z,55.83
2019-05-19T04:05:26.407Z,65.30
2019-05-19T04:07:56.745Z,59.40
2019-05-19T04:10:27.142Z,60.87
2019-05-19T04:12:57.466Z,59.03
2019-05-19T04:15:27.904Z,61.57
2019-05-19T04:17:58.246Z,58.83
2019-05-19T04:20:28.674Z,64.50
2019-05-19T04:22:59.127Z,63.77
2019-05-19T04:25:29.534Z,66.17
2019-05-19T04:27:59.891Z,62.77
2019-05-19T04:30:30.258Z,62.80
2019-05-19T04:33:00.599Z,69.43
2019-05-19T04:35:30.963Z,61.93
2019-05-19T04:38:01.397Z,64.40
2019-05-19T04:40:31.779Z,55.50
2019-05-19T04:43:02.125Z,59.37
2019-05-19T04:45:32.603Z,51.23
2019-05-19T04:48:03.019Z,52.50
2019-05-19T04:50:33.425Z,46.97
2019-05-19T04:53:03.845Z,54.23
2019-05-19T04:55:34.245Z,40.27
2019-05-19T04:58:04.600Z,42.50
2019-05-19T05:00:52.814Z,51.40
2019-05-19T05:03:23.143Z,46.33
2019-05-19T05:05:53.523Z,46.33
2019-05-19T05:08:29.374Z,45.80
2019-05-19T05:10:55.885Z,49.27
2019-05-19T05:13:26.226Z,51.87
2019-05-19T05:15:56.683Z,49.80
2019-05-19T05:18:27.015Z,47.37
2019-05-19T05:20:57.422Z,55.80
2019-05-19T05:23:27.863Z,52.30
2019-05-19T05:25:58.249Z,46.43
2019-05-19T05:28:28.619Z,44.50
2019-05-19T05:30:59.028Z,55.70
2019-05-19T05:33:29.458Z,58.80
2019-05-19T05:36:01.019Z,56.70
2019-05-19T05:38:31.480Z,54.33
2019-05-19T05:41:01.934Z,52.47
2019-05-19T05:43:32.359Z,53.37
2019-05-19T05:46:02.874Z,47.73
2019-05-19T05:48:34.288Z,45.37
2019-05-19T05:51:04.766Z,47.80
2019-05-19T05:53:35.126Z,50.70
2019-05-19T05:56:05.535Z,55.93
2019-05-19T05:58:35.870Z,49.63
2019-05-19T06:01:06.269Z,52.33
2019-05-19T06:03:36.659Z,52.60
2019-05-19T06:06:07.043Z,45.83
2019-05-19T06:08:37.884Z,55.13
2019-05-19T06:11:18.854Z,47.13
2019-05-19T06:13:49.812Z,56.43
2019-05-19T06:16:20.234Z,62.13
2019-05-19T06:18:50.692Z,62.77
2019-05-19T06:21:23.944Z,58.77
2019-05-19T06:23:54.379Z,61.63
2019-05-19T06:26:26.015Z,57.90
2019-05-19T06:29:06.741Z,64.00
2019-05-19T06:31:37.107Z,45.97
2019-05-19T06:34:07.485Z,58.20
2019-05-19T06:36:37.867Z,61.07
2019-05-19T06:39:09.405Z,50.53
2019-05-19T06:41:39.873Z,48.03
2019-05-19T06:44:10.207Z,43.87
2019-05-19T06:46:40.587Z,49.77
2019-05-19T06:49:11.017Z,47.00
2019-05-19T06:51:41.411Z,45.87
2019-05-19T06:54:11.760Z,44.30
2019-05-19T06:56:42.173Z,55.40
2019-05-19T06:59:12.656Z,52.03
2019-05-19T07:01:43.020Z,48.77
2019-05-19T07:04:13.405Z,49.53
2019-05-19T07:06:44.003Z,39.63
2019-05-19T07:09:14.411Z,45.23
2019-05-19T07:11:44.792Z,43.63
2019-05-19T07:14:15.109Z,46.23
2019-05-19T07:16:45.488Z,38.77
2019-05-19T07:19:15.859Z,33.97
2019-05-19T07:21:46.237Z,34.03
2019-05-19T07:24:16.662Z,31.40
2019-05-19T07:26:47.088Z,31.87
2019-05-19T07:29:17.439Z,31.23
2019-05-19T07:31:48.981Z,29.20
2019-05-19T07:34:19.487Z,29.27
2019-05-19T07:36:49.875Z,28.90
2019-05-19T07:39:20.281Z,28.57
2019-05-19T07:41:50.601Z,29.23
2019-05-19T07:44:21.016Z,27.87
2019-05-19T07:46:51.391Z,28.67
2019-05-19T07:49:21.821Z,94.63
2019-05-19T07:51:52.342Z,30.47
2019-05-19T07:54:22.701Z,26.80
2019-05-19T07:56:53.055Z,28.90
2019-05-19T07:59:23.479Z,28.43
2019-05-19T08:01:56.262Z,27.67
2019-05-19T08:04:26.587Z,27.90
2019-05-19T08:06:57.007Z,30.13
2019-05-19T08:09:27.342Z,29.47
2019-05-19T08:11:57.727Z,28.07
2019-05-19T08:14:28.078Z,27.20
2019-05-19T08:16:58.465Z,30.23
2019-05-19T08:19:28.834Z,30.93
2019-05-19T08:21:59.224Z,27.93
2019-05-19T08:24:29.820Z,29.63
2019-05-19T08:27:00.338Z,29.73
2019-05-19T08:29:30.671Z,28.87
2019-05-19T08:32:01.044Z,28.83
2019-05-19T08:34:31.401Z,28.17
2019-05-19T08:37:02.896Z,30.37
2019-05-19T08:39:33.274Z,28.67
2019-05-19T08:42:05.457Z,28.43
2019-05-19T08:44:35.777Z,29.00
2019-05-19T08:47:07.117Z,30.13
2019-05-19T08:49:37.569Z,29.97
2019-05-19T08:52:07.940Z,30.03
2019-05-19T08:54:38.282Z,28.70
2019-05-19T08:57:08.638Z,30.13
2019-05-19T08:59:39.021Z,31.43
2019-05-19T09:02:09.389Z,30.63
2019-05-19T09:04:39.705Z,30.87
2019-05-19T09:07:10.075Z,31.27
2019-05-19T09:09:40.396Z,31.60
2019-05-19T09:12:10.792Z,31.17
2019-05-19T09:14:41.153Z,31.10
2019-05-19T09:17:11.587Z,30.83
2019-05-19T09:19:41.927Z,31.90
2019-05-19T09:22:12.297Z,32.27
2019-05-19T09:24:42.708Z,30.30
2019-05-19T09:27:13.039Z,30.67
2019-05-19T09:29:43.472Z,29.30
2019-05-19T09:32:13.796Z,29.20
2019-05-19T09:34:44.204Z,28.50
2019-05-19T09:37:14.517Z,30.30
2019-05-19T09:39:44.932Z,29.37
2019-05-19T09:42:15.404Z,26.60
2019-05-19T09:44:45.835Z,21.50
2019-05-19T09:47:16.206Z,21.70
2019-05-19T09:49:46.531Z,19.70
2019-05-19T09:52:17.268Z,25.30
2019-05-19T09:54:47.619Z,27.30
2019-05-19T09:57:18.154Z,24.93
2019-05-19T09:59:48.468Z,26.00
2019-05-19T10:02:18.860Z,23.23
2019-05-19T10:04:49.186Z,25.33
2019-05-19T10:07:19.507Z,20.50
2019-05-19T10:09:57.316Z,21.50
2019-05-19T10:12:27.699Z,19.97
2019-05-19T10:14:58.153Z,19.90
2019-05-19T10:17:28.578Z,21.10
2019-05-19T10:19:58.939Z,23.27
2019-05-19T10:22:29.438Z,21.00
2019-05-19T10:25:20.499Z,17.40
2019-05-19T10:27:31.940Z,15.30
2019-05-19T10:30:02.351Z,23.03
2019-05-19T10:32:32.857Z,23.57
2019-05-19T10:35:03.249Z,22.93
2019-05-19T10:37:33.563Z,23.20
2019-05-19T10:40:04.114Z,21.97
2019-05-19T10:42:34.674Z,23.47
2019-05-19T10:45:06.378Z,21.00
2019-05-19T10:47:37.712Z,21.03
2019-05-19T10:50:08.256Z,19.23
2019-05-19T10:52:38.639Z,19.43
2019-05-19T10:55:09.295Z,19.87
2019-05-19T10:57:39.739Z,19.60
2019-05-19T11:00:10.077Z,17.47
2019-05-19T11:02:40.599Z,15.80
2019-05-19T11:05:11.595Z,16.77
2019-05-19T11:07:42.064Z,16.90
2019-05-19T11:10:12.852Z,16.97
2019-05-19T11:12:43.177Z,18.50
2019-05-19T11:15:13.746Z,23.20
2019-05-19T11:17:44.072Z,17.20
2019-05-19T11:20:15.591Z,16.80
2019-05-19T11:22:45.952Z,22.23
2019-05-19T11:25:16.396Z,16.97
2019-05-19T11:27:46.812Z,21.43
2019-05-19T11:30:17.287Z,16.23
2019-05-19T11:32:47.632Z,16.47
2019-05-19T11:35:18.009Z,16.40
2019-05-19T11:37:48.402Z,16.70
2019-05-19T11:40:18.893Z,15.40
2019-05-19T11:42:49.238Z,15.30
2019-05-19T11:45:19.627Z,17.20
2019-05-19T11:47:50.024Z,18.07
2019-05-19T11:50:20.433Z,18.73
2019-05-19T11:52:50.880Z,17.30
2019-05-19T11:55:21.283Z,18.43
2019-05-19T11:57:51.621Z,17.50
2019-05-19T12:00:22.199Z,18.60
2019-05-19T12:02:52.618Z,20.87
2019-05-19T12:05:23.165Z,20.60
2019-05-19T12:07:53.549Z,19.37
2019-05-19T12:10:24.054Z,19.53
2019-05-19T12:12:55.493Z,16.87
2019-05-19T12:15:25.916Z,15.70
2019-05-19T12:17:56.241Z,12.57
2019-05-19T12:20:26.654Z,12.80
2019-05-19T12:22:58.261Z,13.03
2019-05-19T12:25:28.676Z,12.07
2019-05-19T12:27:59.056Z,11.53
2019-05-19T12:30:29.522Z,11.97
2019-05-19T12:32:59.950Z,10.83
2019-05-19T12:35:30.272Z,10.50
2019-05-19T12:38:00.736Z,11.80
2019-05-19T12:40:31.082Z,9.53
2019-05-19T12:43:01.459Z,8.93
2019-05-19T12:45:31.925Z,8.77
2019-05-19T12:48:03.523Z,9.67
2019-05-19T12:50:33.846Z,10.80
2019-05-19T12:53:04.254Z,10.87
2019-05-19T12:55:34.607Z,9.90
2019-05-19T12:58:04.977Z,9.00
2019-05-19T13:00:35.305Z,5.67
2019-05-19T13:03:05.970Z,7.03
2019-05-19T13:05:36.281Z,7.20
2019-05-19T13:08:06.640Z,6.33
2019-05-19T13:10:36.981Z,6.42
2019-05-19T13:13:08.641Z,5.30
2019-05-19T13:15:38.958Z,5.35
2019-05-19T13:18:09.329Z,5.33
2019-05-19T13:20:39.678Z,5.28
2019-05-19T13:23:10.043Z,5.17
2019-05-19T13:25:40.371Z,5.30
2019-05-19T13:28:10.720Z,5.10
2019-05-19T13:30:43.519Z,5.83
2019-05-19T13:33:13.633Z,4.85
2019-05-19T13:35:43.948Z,4.90
2019-05-19T13:38:14.338Z,4.85
2019-05-19T13:40:44.699Z,4.60
2019-05-19T13:43:15.059Z,4.67
2019-05-19T13:45:45.471Z,4.28
2019-05-19T13:48:15.837Z,5.50
2019-05-19T13:50:46.154Z,5.00
2019-05-19T13:53:16.525Z,5.13
2019-05-19T13:55:46.864Z,5.50
2019-05-19T13:58:17.465Z,5.00
2019-05-19T14:00:47.797Z,5.40
2019-05-19T14:03:18.151Z,4.73
2019-05-19T14:05:48.471Z,4.63
2019-05-19T14:08:18.951Z,4.17
2019-05-19T14:10:49.255Z,3.75
2019-05-19T14:13:19.609Z,3.83
2019-05-19T14:15:49.933Z,4.10
2019-05-19T14:18:20.312Z,3.55
2019-05-19T14:20:50.626Z,3.37
2019-05-19T14:23:21.154Z,2.77
2019-05-19T14:25:51.487Z,3.47
2019-05-19T14:28:21.860Z,3.62
2019-05-19T14:30:52.510Z,3.37
2019-05-19T14:33:22.890Z,3.70
2019-05-19T14:35:53.233Z,3.90
2019-05-19T14:38:23.672Z,3.33
2019-05-19T14:40:54.089Z,3.42
2019-05-19T14:43:24.475Z,3.10
2019-05-19T14:45:54.908Z,3.58
2019-05-19T14:48:25.304Z,3.30
2019-05-19T14:50:55.681Z,3.20
2019-05-19T14:53:26.067Z,3.47
2019-05-19T14:55:56.418Z,3.60
2019-05-19T14:58:27.078Z,3.75
2019-05-19T15:00:57.424Z,3.22
2019-05-19T15:03:27.783Z,3.67
2019-05-19T15:05:58.106Z,3.72
2019-05-19T15:08:28.471Z,3.50
2019-05-19T15:10:58.790Z,4.08
2019-05-19T15:13:29.200Z,3.90
2019-05-19T15:15:59.592Z,3.58
2019-05-19T15:18:29.952Z,4.03
2019-05-19T15:21:00.300Z,4.00
2019-05-19T15:23:30.668Z,3.27
2019-05-19T15:26:01.007Z,3.80
2019-05-19T15:28:31.483Z,3.42
2019-05-19T15:31:01.813Z,4.20
2019-05-19T15:33:38.077Z,3.50
2019-05-19T15:36:04.345Z,3.92
2019-05-19T15:38:35.209Z,4.20
2019-05-19T15:41:05.541Z,3.20
2019-05-19T15:43:35.931Z,3.90
2019-05-19T15:46:06.376Z,3.70
2019-05-19T15:48:36.768Z,3.05
2019-05-19T15:51:07.097Z,3.40
2019-05-19T15:53:37.474Z,3.95
2019-05-19T15:56:07.826Z,4.00
2019-05-19T15:58:38.185Z,4.42
2019-05-19T16:01:08.522Z,3.65
2019-05-19T16:03:38.878Z,4.42
2019-05-19T16:06:09.214Z,5.28
2019-05-19T16:08:39.625Z,4.10
2019-05-19T16:11:10.351Z,4.03
2019-05-19T16:13:40.715Z,3.70
2019-05-19T16:16:11.033Z,4.28
2019-05-19T16:18:41.446Z,4.22
2019-05-19T16:21:11.782Z,3.37
2019-05-19T16:23:42.149Z,3.90
2019-05-19T16:26:12.482Z,3.80
2019-05-19T16:28:42.862Z,3.95
2019-05-19T16:31:13.263Z,4.22
2019-05-19T16:33:43.736Z,4.58
2019-05-19T16:36:14.124Z,4.37
2019-05-19T16:38:44.448Z,4.42
2019-05-19T16:41:14.812Z,4.25
2019-05-19T16:43:45.175Z,4.95
2019-05-19T16:46:15.601Z,3.90
2019-05-19T16:48:46.050Z,4.10
2019-05-19T16:51:16.517Z,4.28
2019-05-19T16:53:48.578Z,4.25
2019-05-19T16:56:18.981Z,4.10
2019-05-19T16:58:49.658Z,3.95
2019-05-19T17:01:21.416Z,4.53
2019-05-19T17:03:56.994Z,6.47
2019-05-19T17:06:28.641Z,4.37
2019-05-19T17:09:03.105Z,4.25
2019-05-19T17:11:35.131Z,3.85
2019-05-19T17:14:05.564Z,3.65
2019-05-19T17:16:35.903Z,4.05
2019-05-19T17:19:06.296Z,4.10
2019-05-19T17:21:36.613Z,3.90
2019-05-19T17:24:07.162Z,4.78
2019-05-19T17:26:37.578Z,5.47
2019-05-19T17:29:07.985Z,4.73
2019-05-19T17:31:38.312Z,5.00
2019-05-19T17:34:08.719Z,4.33
2019-05-19T17:36:39.050Z,4.40
2019-05-19T17:39:09.387Z,5.57
2019-05-19T17:41:39.859Z,5.27
2019-05-19T17:44:10.190Z,4.60
2019-05-19T17:46:40.570Z,4.77
2019-05-19T17:49:10.887Z,4.30
2019-05-19T17:51:42.254Z,8.60
2019-05-19T17:54:12.562Z,7.03
2019-05-19T17:56:43.553Z,5.73
2019-05-19T17:59:16.796Z,4.93
2019-05-19T18:01:47.910Z,5.57
2019-05-19T18:04:18.252Z,6.33
2019-05-19T18:06:48.629Z,5.00
2019-05-19T18:09:18.968Z,5.70
2019-05-19T18:11:49.368Z,5.23
2019-05-19T18:14:19.691Z,4.77
2019-05-19T18:16:50.113Z,5.40
2019-05-19T18:19:20.435Z,5.17
2019-05-19T18:21:50.822Z,5.47
2019-05-19T18:24:21.195Z,5.20
2019-05-19T18:26:51.524Z,9.30
2019-05-19T18:29:31.047Z,5.70
2019-05-19T18:31:53.866Z,6.23
2019-05-19T18:34:24.270Z,6.60
2019-05-19T18:36:54.594Z,6.77
2019-05-19T18:39:26.150Z,6.57
2019-05-19T18:41:57.459Z,5.63
2019-05-19T18:44:28.864Z,5.53
2019-05-19T18:46:59.442Z,5.77
2019-05-19T18:49:29.940Z,5.80
2019-05-19T18:52:00.308Z,6.00
2019-05-19T18:54:30.714Z,6.23
2019-05-19T18:57:01.160Z,6.63
2019-05-19T18:59:46.069Z,5.27
2019-05-19T19:02:03.832Z,5.40
2019-05-19T19:04:34.215Z,5.57
2019-05-19T19:07:04.544Z,7.63
2019-05-19T19:09:34.952Z,10.90
2019-05-19T19:12:05.282Z,9.30
2019-05-19T19:14:35.734Z,7.37
2019-05-19T19:17:06.084Z,9.87
2019-05-19T19:19:36.795Z,13.33
2019-05-19T19:22:07.134Z,10.37
2019-05-19T19:24:38.663Z,5.17
2019-05-19T19:27:09.090Z,5.97
2019-05-19T19:29:39.493Z,7.70
2019-05-19T19:32:09.856Z,8.33
2019-05-19T19:34:40.246Z,5.83
2019-05-19T19:37:10.607Z,9.50
2019-05-19T19:39:41.016Z,7.93
2019-05-19T19:42:11.421Z,5.60
2019-05-19T19:44:41.811Z,7.10
2019-05-19T19:47:12.142Z,5.00
2019-05-19T19:49:42.552Z,6.00
2019-05-19T19:52:12.861Z,9.03
2019-05-19T19:54:43.230Z,5.80
2019-05-19T19:57:13.590Z,5.60
2019-05-19T19:59:43.971Z,5.13
2019-05-19T20:02:14.342Z,5.43
2019-05-19T20:04:44.834Z,5.57
2019-05-19T20:07:15.154Z,6.20
2019-05-19T20:09:45.545Z,5.67
2019-05-19T20:12:15.943Z,7.53
2019-05-19T20:14:46.328Z,9.70
2019-05-19T20:17:16.665Z,9.97
2019-05-19T20:19:47.058Z,10.27
2019-05-19T20:22:17.399Z,10.17
2019-05-19T20:24:47.807Z,10.00
2019-05-19T20:27:18.108Z,10.50
2019-05-19T20:29:48.595Z,10.80
2019-05-19T20:32:18.950Z,11.47
2019-05-19T20:34:49.430Z,11.10
2019-05-19T20:37:19.796Z,11.43
2019-05-19T20:39:50.271Z,11.37
2019-05-19T20:42:20.641Z,11.40
2019-05-19T20:44:51.019Z,10.60
2019-05-19T20:47:21.384Z,10.30
2019-05-19T20:49:51.749Z,8.70
2019-05-19T20:52:22.095Z,8.40
2019-05-19T20:54:52.470Z,6.77
2019-05-19T20:57:22.794Z,5.07
2019-05-19T20:59:53.170Z,5.10
2019-05-19T21:02:23.562Z,5.30
2019-05-19T21:04:53.929Z,5.00
2019-05-19T21:07:24.303Z,5.00
2019-05-19T21:09:54.675Z,6.07
2019-05-19T21:12:25.051Z,6.77
2019-05-19T21:14:55.466Z,6.20
2019-05-19T21:17:26.003Z,5.47
2019-05-19T21:19:57.202Z,7.33
2019-05-19T21:22:27.550Z,9.73
2019-05-19T21:24:57.951Z,10.97
2019-05-19T21:27:29.108Z,11.27
2019-05-19T21:29:59.573Z,13.33
2019-05-19T21:32:30.996Z,12.87
2019-05-19T21:35:01.541Z,19.77
2019-05-19T21:37:31.876Z,16.77
2019-05-19T21:40:02.273Z,16.13
2019-05-19T21:42:33.760Z,15.77
2019-05-19T21:45:04.734Z,14.87
2019-05-19T21:47:35.075Z,15.00
2019-05-19T21:50:06.416Z,15.67
2019-05-19T21:52:36.745Z,13.93
2019-05-19T21:55:07.476Z,17.40
2019-05-19T21:57:37.814Z,21.23
2019-05-19T22:00:10.861Z,23.33
2019-05-19T22:02:42.900Z,20.40
2019-05-19T22:05:13.387Z,23.17
2019-05-19T22:07:57.831Z,20.27
2019-05-19T22:10:28.268Z,24.33
2019-05-19T22:12:58.615Z,20.30
2019-05-19T22:15:29.019Z,20.03
2019-05-19T22:17:59.355Z,22.07
2019-05-19T22:20:29.875Z,23.57
2019-05-19T22:23:00.205Z,21.77
2019-05-19T22:25:30.588Z,27.53
2019-05-19T22:28:00.934Z,16.50
2019-05-19T22:30:31.311Z,20.90
2019-05-19T22:33:01.644Z,46.47
2019-05-19T22:35:32.020Z,43.93
2019-05-19T22:38:02.346Z,41.10
2019-05-19T22:40:32.755Z,36.10
2019-05-19T22:43:03.161Z,32.30
2019-05-19T22:45:33.563Z,38.03
2019-05-19T22:48:03.902Z,24.77
2019-05-19T22:50:34.300Z,20.40
2019-05-19T22:53:04.655Z,21.27
2019-05-19T22:55:35.021Z,12.83
2019-05-19T22:58:05.361Z,11.17
2019-05-19T23:00:35.745Z,8.73
2019-05-19T23:03:06.084Z,11.37
2019-05-19T23:05:36.470Z,9.37
2019-05-19T23:08:07.974Z,13.63
2019-05-19T23:10:38.392Z,13.40
2019-05-19T23:13:08.921Z,14.97
2019-05-19T23:15:39.299Z,13.87
2019-05-19T23:18:11.449Z,16.57
2019-05-19T23:20:42.045Z,17.00
2019-05-19T23:23:13.351Z,21.00
2019-05-19T23:25:43.734Z,15.00
2019-05-19T23:28:14.088Z,16.00
2019-05-19T23:30:44.473Z,15.30
2019-05-19T23:33:16.080Z,14.87
2019-05-19T23:35:46.514Z,13.17
2019-05-19T23:38:16.868Z,15.80
2019-05-19T23:40:47.239Z,19.50
2019-05-19T23:43:17.573Z,18.37
2019-05-19T23:45:47.944Z,18.30
2019-05-19T23:48:18.288Z,17.07
2019-05-19T23:50:48.674Z,16.63
2019-05-19T23:53:20.763Z,14.47
2019-05-19T23:55:51.147Z,14.60
2019-05-19T23:58:22.448Z,17.07
